sensor_id;sensor_type;location;lat;lon;timestamp;P1;durP1;ratioP1;P2;durP2;ratioP2
61527;SDS011;47395;42.032;-8.634;2023-09-30T00:00:17;5.95;;;4.00;;
61527;SDS011;47395;42.032;-8.634;2023-09-30T00:02:17;4.93;;;4.50;;
61527;SDS011;47395;42.032;-8.634;2023-09-30T00:04:18;7.78;;;4.57;;
61527;SDS011;47395;42.032;-8.634;2023-09-30T00:06:19;4.68;;;4.30;;
61527;SDS011;47395;42.032;-8.634;2023-09-30T00:08:20;6.10;;;4.07;;
61527;SDS011;47395;42.032;-8.634;2023-09-30T00:10:21;5.88;;;5.10;;
61527;SDS011;47395;42.032;-8.634;2023-09-30T00:12:22;4.95;;;4.22;;
61527;SDS011;47395;42.032;-8.634;2023-09-30T00:14:23;6.68;;;4.97;;
61527;SDS011;47395;42.032;-8.634;2023-09-30T00:16:24;6.85;;;4.72;;
61527;SDS011;47395;42.032;-8.634;2023-09-30T00:18:24;5.57;;;4.72;;
61527;SDS011;47395;42.032;-8.634;2023-09-30T00:20:25;4.40;;;4.10;;
61527;SDS011;47395;42.032;-8.634;2023-09-30T00:22:26;5.03;;;4.38;;
61527;SDS011;47395;42.032;-8.634;2023-09-30T00:24:27;5.15;;;4.45;;
61527;SDS011;47395;42.032;-8.634;2023-09-30T00:26:27;7.97;;;4.25;;
61527;SDS011;47395;42.032;-8.634;2023-09-30T00:28:29;9.35;;;4.47;;
61527;SDS011;47395;42.032;-8.634;2023-09-30T00:30:30;4.90;;;4.00;;
61527;SDS011;47395;42.032;-8.634;2023-09-30T00:32:31;5.55;;;4.15;;
61527;SDS011;47395;42.032;-8.634;2023-09-30T00:34:33;12.90;;;4.85;;
61527;SDS011;47395;42.032;-8.634;2023-09-30T00:36:34;9.45;;;4.70;;
61527;SDS011;47395;42.032;-8.634;2023-09-30T00:38:35;4.63;;;4.30;;
61527;SDS011;47395;42.032;-8.634;2023-09-30T00:40:46;16.15;;;5.00;;
61527;SDS011;47395;42.032;-8.634;2023-09-30T00:42:48;5.82;;;4.30;;
61527;SDS011;47395;42.032;-8.634;2023-09-30T00:44:49;10.35;;;4.50;;
61527;SDS011;47395;42.032;-8.634;2023-09-30T00:46:50;8.38;;;4.70;;
61527;SDS011;47395;42.032;-8.634;2023-09-30T00:48:51;6.85;;;4.70;;
61527;SDS011;47395;42.032;-8.634;2023-09-30T00:50:52;11.05;;;4.45;;
61527;SDS011;47395;42.032;-8.634;2023-09-30T00:52:53;8.02;;;4.60;;
61527;SDS011;47395;42.032;-8.634;2023-09-30T00:54:55;5.32;;;4.28;;
61527;SDS011;47395;42.032;-8.634;2023-09-30T00:56:55;5.00;;;4.50;;
61527;SDS011;47395;42.032;-8.634;2023-09-30T00:58:58;8.85;;;4.80;;
61527;SDS011;47395;42.032;-8.634;2023-09-30T01:00:59;5.82;;;4.75;;
61527;SDS011;47395;42.032;-8.634;2023-09-30T01:03:00;5.55;;;4.25;;
61527;SDS011;47395;42.032;-8.634;2023-09-30T01:05:04;10.05;;;4.70;;
61527;SDS011;47395;42.032;-8.634;2023-09-30T01:07:05;4.28;;;3.92;;
61527;SDS011;47395;42.032;-8.634;2023-09-30T01:09:06;4.97;;;4.50;;
61527;SDS011;47395;42.032;-8.634;2023-09-30T01:11:08;4.60;;;4.07;;
61527;SDS011;47395;42.032;-8.634;2023-09-30T01:13:10;4.47;;;3.90;;
61527;SDS011;47395;42.032;-8.634;2023-09-30T01:15:11;4.88;;;4.47;;
61527;SDS011;47395;42.032;-8.634;2023-09-30T01:17:12;4.68;;;4.25;;
61527;SDS011;47395;42.032;-8.634;2023-09-30T01:19:14;6.55;;;4.20;;
61527;SDS011;47395;42.032;-8.634;2023-09-30T01:21:14;4.53;;;4.10;;
61527;SDS011;47395;42.032;-8.634;2023-09-30T01:23:16;4.80;;;4.40;;
61527;SDS011;47395;42.032;-8.634;2023-09-30T01:25:17;6.40;;;4.68;;
61527;SDS011;47395;42.032;-8.634;2023-09-30T01:27:19;5.57;;;4.35;;
61527;SDS011;47395;42.032;-8.634;2023-09-30T01:29:20;5.53;;;5.03;;
61527;SDS011;47395;42.032;-8.634;2023-09-30T01:31:21;4.28;;;3.90;;
61527;SDS011;47395;42.032;-8.634;2023-09-30T01:33:22;5.43;;;4.10;;
61527;SDS011;47395;42.032;-8.634;2023-09-30T01:35:23;7.40;;;4.53;;
61527;SDS011;47395;42.032;-8.634;2023-09-30T01:37:26;4.13;;;3.80;;
61527;SDS011;47395;42.032;-8.634;2023-09-30T01:39:28;6.38;;;4.13;;
61527;SDS011;47395;42.032;-8.634;2023-09-30T01:41:30;5.00;;;4.35;;
61527;SDS011;47395;42.032;-8.634;2023-09-30T01:43:31;6.43;;;4.68;;
61527;SDS011;47395;42.032;-8.634;2023-09-30T01:45:32;9.05;;;4.63;;
61527;SDS011;47395;42.032;-8.634;2023-09-30T01:47:32;5.55;;;5.07;;
61527;SDS011;47395;42.032;-8.634;2023-09-30T01:49:34;4.82;;;4.40;;
61527;SDS011;47395;42.032;-8.634;2023-09-30T01:51:34;6.07;;;4.32;;
61527;SDS011;47395;42.032;-8.634;2023-09-30T01:53:35;8.57;;;4.55;;
61527;SDS011;47395;42.032;-8.634;2023-09-30T01:55:36;6.57;;;3.95;;
61527;SDS011;47395;42.032;-8.634;2023-09-30T01:57:38;5.07;;;4.63;;
61527;SDS011;47395;42.032;-8.634;2023-09-30T01:59:39;6.15;;;3.83;;
61527;SDS011;47395;42.032;-8.634;2023-09-30T02:01:39;4.20;;;3.90;;
61527;SDS011;47395;42.032;-8.634;2023-09-30T02:03:40;4.20;;;3.90;;
61527;SDS011;47395;42.032;-8.634;2023-09-30T02:05:41;11.20;;;4.30;;
61527;SDS011;47395;42.032;-8.634;2023-09-30T02:07:43;7.07;;;4.97;;
61527;SDS011;47395;42.032;-8.634;2023-09-30T02:09:44;4.95;;;3.65;;
61527;SDS011;47395;42.032;-8.634;2023-09-30T02:11:45;5.05;;;4.15;;
61527;SDS011;47395;42.032;-8.634;2023-09-30T02:13:45;5.03;;;3.63;;
61527;SDS011;47395;42.032;-8.634;2023-09-30T02:15:46;5.03;;;3.90;;
61527;SDS011;47395;42.032;-8.634;2023-09-30T02:17:47;4.35;;;3.72;;
61527;SDS011;47395;42.032;-8.634;2023-09-30T02:19:49;4.05;;;3.75;;
61527;SDS011;47395;42.032;-8.634;2023-09-30T02:21:50;4.95;;;4.45;;
61527;SDS011;47395;42.032;-8.634;2023-09-30T02:23:51;4.32;;;4.03;;
61527;SDS011;47395;42.032;-8.634;2023-09-30T02:25:55;7.53;;;5.00;;
61527;SDS011;47395;42.032;-8.634;2023-09-30T02:27:56;5.55;;;3.83;;
61527;SDS011;47395;42.032;-8.634;2023-09-30T02:29:58;6.78;;;3.90;;
61527;SDS011;47395;42.032;-8.634;2023-09-30T02:31:58;4.70;;;4.13;;
61527;SDS011;47395;42.032;-8.634;2023-09-30T02:33:59;4.82;;;3.80;;
61527;SDS011;47395;42.032;-8.634;2023-09-30T02:36:02;4.88;;;4.47;;
61527;SDS011;47395;42.032;-8.634;2023-09-30T02:38:06;4.40;;;3.95;;
61527;SDS011;47395;42.032;-8.634;2023-09-30T02:40:09;6.88;;;4.00;;
61527;SDS011;47395;42.032;-8.634;2023-09-30T02:42:10;8.25;;;4.10;;
61527;SDS011;47395;42.032;-8.634;2023-09-30T02:44:11;4.47;;;3.60;;
61527;SDS011;47395;42.032;-8.634;2023-09-30T02:46:12;8.57;;;4.10;;
61527;SDS011;47395;42.032;-8.634;2023-09-30T02:48:13;4.22;;;3.85;;
61527;SDS011;47395;42.032;-8.634;2023-09-30T02:50:14;4.88;;;4.22;;
61527;SDS011;47395;42.032;-8.634;2023-09-30T02:52:16;7.78;;;3.90;;
61527;SDS011;47395;42.032;-8.634;2023-09-30T02:54:17;12.15;;;4.43;;
61527;SDS011;47395;42.032;-8.634;2023-09-30T02:56:18;7.30;;;3.67;;
61527;SDS011;47395;42.032;-8.634;2023-09-30T02:58:19;7.47;;;4.20;;
61527;SDS011;47395;42.032;-8.634;2023-09-30T03:00:21;4.85;;;4.13;;
61527;SDS011;47395;42.032;-8.634;2023-09-30T03:02:26;4.13;;;3.80;;
61527;SDS011;47395;42.032;-8.634;2023-09-30T03:04:27;4.15;;;3.67;;
61527;SDS011;47395;42.032;-8.634;2023-09-30T03:06:28;3.72;;;3.47;;
61527;SDS011;47395;42.032;-8.634;2023-09-30T03:08:29;4.28;;;3.75;;
61527;SDS011;47395;42.032;-8.634;2023-09-30T03:10:30;5.25;;;4.10;;
61527;SDS011;47395;42.032;-8.634;2023-09-30T03:12:31;5.93;;;3.67;;
61527;SDS011;47395;42.032;-8.634;2023-09-30T03:14:32;4.22;;;3.92;;
61527;SDS011;47395;42.032;-8.634;2023-09-30T03:16:33;9.27;;;3.80;;
61527;SDS011;47395;42.032;-8.634;2023-09-30T03:18:34;5.18;;;3.83;;
61527;SDS011;47395;42.032;-8.634;2023-09-30T03:20:35;4.25;;;3.83;;
61527;SDS011;47395;42.032;-8.634;2023-09-30T03:22:40;4.07;;;3.05;;
61527;SDS011;47395;42.032;-8.634;2023-09-30T03:24:43;5.85;;;3.55;;
61527;SDS011;47395;42.032;-8.634;2023-09-30T03:26:43;4.32;;;3.35;;
61527;SDS011;47395;42.032;-8.634;2023-09-30T03:28:44;5.10;;;3.53;;
61527;SDS011;47395;42.032;-8.634;2023-09-30T03:30:46;6.80;;;3.45;;
61527;SDS011;47395;42.032;-8.634;2023-09-30T03:32:47;7.78;;;3.80;;
61527;SDS011;47395;42.032;-8.634;2023-09-30T03:34:47;3.67;;;3.25;;
61527;SDS011;47395;42.032;-8.634;2023-09-30T03:36:49;8.32;;;3.45;;
61527;SDS011;47395;42.032;-8.634;2023-09-30T03:38:51;8.05;;;3.33;;
61527;SDS011;47395;42.032;-8.634;2023-09-30T03:40:56;4.28;;;3.95;;
61527;SDS011;47395;42.032;-8.634;2023-09-30T03:42:58;5.43;;;3.55;;
61527;SDS011;47395;42.032;-8.634;2023-09-30T03:44:59;5.07;;;4.15;;
61527;SDS011;47395;42.032;-8.634;2023-09-30T03:47:00;3.97;;;3.67;;
61527;SDS011;47395;42.032;-8.634;2023-09-30T03:49:01;5.35;;;3.33;;
61527;SDS011;47395;42.032;-8.634;2023-09-30T03:51:12;4.82;;;3.83;;
61527;SDS011;47395;42.032;-8.634;2023-09-30T03:53:16;3.85;;;3.50;;
61527;SDS011;47395;42.032;-8.634;2023-09-30T03:55:16;4.15;;;3.30;;
61527;SDS011;47395;42.032;-8.634;2023-09-30T03:57:18;3.83;;;3.63;;
61527;SDS011;47395;42.032;-8.634;2023-09-30T03:59:19;3.88;;;3.58;;
61527;SDS011;47395;42.032;-8.634;2023-09-30T04:04:11;4.10;;;3.20;;
61527;SDS011;47395;42.032;-8.634;2023-09-30T04:06:12;3.72;;;3.53;;
61527;SDS011;47395;42.032;-8.634;2023-09-30T04:08:13;3.88;;;3.58;;
61527;SDS011;47395;42.032;-8.634;2023-09-30T04:10:15;3.75;;;3.38;;
61527;SDS011;47395;42.032;-8.634;2023-09-30T04:12:16;5.05;;;3.40;;
61527;SDS011;47395;42.032;-8.634;2023-09-30T04:14:17;4.63;;;4.22;;
61527;SDS011;47395;42.032;-8.634;2023-09-30T04:16:17;7.00;;;3.38;;
61527;SDS011;47395;42.032;-8.634;2023-09-30T04:18:19;4.90;;;3.30;;
61527;SDS011;47395;42.032;-8.634;2023-09-30T04:20:22;3.45;;;3.22;;
61527;SDS011;47395;42.032;-8.634;2023-09-30T04:22:23;4.40;;;3.60;;
61527;SDS011;47395;42.032;-8.634;2023-09-30T04:24:26;6.15;;;3.88;;
61527;SDS011;47395;42.032;-8.634;2023-09-30T04:26:28;5.80;;;3.80;;
61527;SDS011;47395;42.032;-8.634;2023-09-30T04:28:30;7.45;;;3.67;;
61527;SDS011;47395;42.032;-8.634;2023-09-30T04:30:31;3.80;;;3.50;;
61527;SDS011;47395;42.032;-8.634;2023-09-30T04:32:33;3.95;;;3.67;;
61527;SDS011;47395;42.032;-8.634;2023-09-30T04:34:33;11.98;;;3.88;;
61527;SDS011;47395;42.032;-8.634;2023-09-30T04:36:36;5.25;;;3.40;;
61527;SDS011;47395;42.032;-8.634;2023-09-30T04:38:36;4.35;;;4.03;;
61527;SDS011;47395;42.032;-8.634;2023-09-30T04:40:37;4.65;;;3.90;;
61527;SDS011;47395;42.032;-8.634;2023-09-30T04:42:38;4.30;;;3.50;;
61527;SDS011;47395;42.032;-8.634;2023-09-30T04:44:39;4.13;;;3.83;;
61527;SDS011;47395;42.032;-8.634;2023-09-30T04:46:42;4.05;;;3.60;;
61527;SDS011;47395;42.032;-8.634;2023-09-30T04:48:46;4.53;;;3.63;;
61527;SDS011;47395;42.032;-8.634;2023-09-30T04:50:48;7.78;;;3.92;;
61527;SDS011;47395;42.032;-8.634;2023-09-30T04:52:50;6.10;;;3.30;;
61527;SDS011;47395;42.032;-8.634;2023-09-30T04:54:51;10.23;;;3.40;;
61527;SDS011;47395;42.032;-8.634;2023-09-30T04:56:52;4.15;;;3.80;;
61527;SDS011;47395;42.032;-8.634;2023-09-30T04:58:53;4.70;;;3.55;;
61527;SDS011;47395;42.032;-8.634;2023-09-30T05:00:54;7.50;;;3.17;;
61527;SDS011;47395;42.032;-8.634;2023-09-30T05:02:55;4.20;;;3.63;;
61527;SDS011;47395;42.032;-8.634;2023-09-30T05:04:56;5.30;;;3.30;;
61527;SDS011;47395;42.032;-8.634;2023-09-30T05:06:57;3.78;;;3.53;;
61527;SDS011;47395;42.032;-8.634;2023-09-30T05:08:58;5.75;;;3.75;;
61527;SDS011;47395;42.032;-8.634;2023-09-30T05:11:00;4.50;;;4.03;;
61527;SDS011;47395;42.032;-8.634;2023-09-30T05:13:01;4.93;;;4.07;;
61527;SDS011;47395;42.032;-8.634;2023-09-30T05:15:03;4.88;;;3.35;;
61527;SDS011;47395;42.032;-8.634;2023-09-30T05:17:06;7.57;;;3.55;;
61527;SDS011;47395;42.032;-8.634;2023-09-30T05:19:08;6.32;;;3.40;;
61527;SDS011;47395;42.032;-8.634;2023-09-30T05:21:09;8.32;;;3.30;;
61527;SDS011;47395;42.032;-8.634;2023-09-30T05:23:10;4.03;;;3.13;;
61527;SDS011;47395;42.032;-8.634;2023-09-30T05:25:15;3.83;;;3.17;;
61527;SDS011;47395;42.032;-8.634;2023-09-30T05:27:16;6.10;;;3.63;;
61527;SDS011;47395;42.032;-8.634;2023-09-30T05:29:17;7.82;;;3.13;;
61527;SDS011;47395;42.032;-8.634;2023-09-30T05:31:19;5.35;;;2.95;;
61527;SDS011;47395;42.032;-8.634;2023-09-30T05:33:21;3.88;;;3.30;;
61527;SDS011;47395;42.032;-8.634;2023-09-30T05:35:23;6.45;;;3.80;;
61527;SDS011;47395;42.032;-8.634;2023-09-30T05:37:24;4.40;;;3.30;;
61527;SDS011;47395;42.032;-8.634;2023-09-30T05:39:26;3.47;;;3.17;;
61527;SDS011;47395;42.032;-8.634;2023-09-30T05:41:29;3.05;;;2.95;;
61527;SDS011;47395;42.032;-8.634;2023-09-30T05:43:30;5.90;;;3.22;;
61527;SDS011;47395;42.032;-8.634;2023-09-30T05:45:33;4.28;;;3.58;;
61527;SDS011;47395;42.032;-8.634;2023-09-30T05:47:36;3.97;;;3.53;;
61527;SDS011;47395;42.032;-8.634;2023-09-30T05:49:38;4.75;;;3.55;;
61527;SDS011;47395;42.032;-8.634;2023-09-30T05:51:42;3.40;;;3.15;;
61527;SDS011;47395;42.032;-8.634;2023-09-30T05:53:43;3.55;;;3.22;;
61527;SDS011;47395;42.032;-8.634;2023-09-30T05:55:44;3.53;;;3.22;;
61527;SDS011;47395;42.032;-8.634;2023-09-30T05:57:49;7.40;;;3.03;;
61527;SDS011;47395;42.032;-8.634;2023-09-30T05:59:50;3.28;;;2.92;;
61527;SDS011;47395;42.032;-8.634;2023-09-30T06:01:51;4.28;;;3.20;;
61527;SDS011;47395;42.032;-8.634;2023-09-30T06:03:52;4.85;;;3.40;;
61527;SDS011;47395;42.032;-8.634;2023-09-30T06:05:53;4.30;;;3.90;;
61527;SDS011;47395;42.032;-8.634;2023-09-30T06:07:54;3.65;;;3.45;;
61527;SDS011;47395;42.032;-8.634;2023-09-30T06:09:54;7.00;;;3.30;;
61527;SDS011;47395;42.032;-8.634;2023-09-30T06:11:55;4.18;;;3.05;;
61527;SDS011;47395;42.032;-8.634;2023-09-30T06:13:56;3.60;;;3.30;;
61527;SDS011;47395;42.032;-8.634;2023-09-30T06:16:01;7.13;;;3.38;;
61527;SDS011;47395;42.032;-8.634;2023-09-30T06:18:02;4.78;;;3.50;;
61527;SDS011;47395;42.032;-8.634;2023-09-30T06:20:05;3.25;;;3.15;;
61527;SDS011;47395;42.032;-8.634;2023-09-30T06:22:16;6.47;;;3.80;;
61527;SDS011;47395;42.032;-8.634;2023-09-30T06:24:17;7.60;;;3.60;;
61527;SDS011;47395;42.032;-8.634;2023-09-30T06:26:22;8.55;;;4.00;;
61527;SDS011;47395;42.032;-8.634;2023-09-30T06:28:25;4.35;;;3.95;;
61527;SDS011;47395;42.032;-8.634;2023-09-30T06:30:26;5.43;;;3.40;;
61527;SDS011;47395;42.032;-8.634;2023-09-30T06:32:30;7.75;;;3.70;;
61527;SDS011;47395;42.032;-8.634;2023-09-30T06:34:31;3.60;;;3.40;;
61527;SDS011;47395;42.032;-8.634;2023-09-30T06:36:33;11.18;;;4.03;;
61527;SDS011;47395;42.032;-8.634;2023-09-30T06:38:34;3.40;;;3.10;;
61527;SDS011;47395;42.032;-8.634;2023-09-30T06:40:35;3.58;;;3.05;;
61527;SDS011;47395;42.032;-8.634;2023-09-30T06:42:36;4.75;;;3.38;;
61527;SDS011;47395;42.032;-8.634;2023-09-30T06:44:38;3.63;;;3.40;;
61527;SDS011;47395;42.032;-8.634;2023-09-30T06:46:39;7.15;;;3.58;;
61527;SDS011;47395;42.032;-8.634;2023-09-30T06:48:43;5.65;;;3.20;;
61527;SDS011;47395;42.032;-8.634;2023-09-30T06:50:45;3.90;;;3.25;;
61527;SDS011;47395;42.032;-8.634;2023-09-30T06:52:48;3.53;;;3.33;;
61527;SDS011;47395;42.032;-8.634;2023-09-30T06:54:49;3.25;;;3.05;;
61527;SDS011;47395;42.032;-8.634;2023-09-30T06:56:52;3.60;;;3.42;;
61527;SDS011;47395;42.032;-8.634;2023-09-30T06:58:53;4.43;;;3.42;;
61527;SDS011;47395;42.032;-8.634;2023-09-30T07:00:54;3.30;;;3.10;;
61527;SDS011;47395;42.032;-8.634;2023-09-30T07:02:55;3.60;;;3.30;;
61527;SDS011;47395;42.032;-8.634;2023-09-30T07:04:57;3.65;;;3.33;;
61527;SDS011;47395;42.032;-8.634;2023-09-30T07:06:58;6.15;;;3.85;;
61527;SDS011;47395;42.032;-8.634;2023-09-30T07:08:59;3.78;;;3.45;;
61527;SDS011;47395;42.032;-8.634;2023-09-30T07:11:00;4.60;;;3.90;;
61527;SDS011;47395;42.032;-8.634;2023-09-30T07:13:02;5.70;;;3.85;;
61527;SDS011;47395;42.032;-8.634;2023-09-30T07:15:04;5.28;;;3.78;;
61527;SDS011;47395;42.032;-8.634;2023-09-30T07:17:06;5.25;;;3.22;;
61527;SDS011;47395;42.032;-8.634;2023-09-30T07:19:08;4.25;;;3.80;;
61527;SDS011;47395;42.032;-8.634;2023-09-30T07:21:09;3.83;;;3.63;;
61527;SDS011;47395;42.032;-8.634;2023-09-30T07:23:09;7.35;;;3.65;;
61527;SDS011;47395;42.032;-8.634;2023-09-30T07:25:10;5.97;;;3.60;;
61527;SDS011;47395;42.032;-8.634;2023-09-30T07:27:11;8.52;;;3.40;;
61527;SDS011;47395;42.032;-8.634;2023-09-30T07:29:12;5.38;;;2.85;;
61527;SDS011;47395;42.032;-8.634;2023-09-30T07:31:13;3.40;;;2.42;;
61527;SDS011;47395;42.032;-8.634;2023-09-30T07:33:14;2.63;;;2.38;;
61527;SDS011;47395;42.032;-8.634;2023-09-30T07:35:15;5.60;;;3.08;;
61527;SDS011;47395;42.032;-8.634;2023-09-30T07:37:16;6.40;;;2.38;;
61527;SDS011;47395;42.032;-8.634;2023-09-30T07:39:18;5.35;;;2.10;;
61527;SDS011;47395;42.032;-8.634;2023-09-30T07:41:19;4.22;;;2.40;;
61527;SDS011;47395;42.032;-8.634;2023-09-30T07:43:20;2.17;;;2.08;;
61527;SDS011;47395;42.032;-8.634;2023-09-30T07:45:22;6.03;;;1.85;;
61527;SDS011;47395;42.032;-8.634;2023-09-30T07:47:23;7.10;;;2.00;;
61527;SDS011;47395;42.032;-8.634;2023-09-30T07:49:24;4.85;;;2.03;;
61527;SDS011;47395;42.032;-8.634;2023-09-30T07:51:25;2.08;;;1.90;;
61527;SDS011;47395;42.032;-8.634;2023-09-30T07:53:26;2.17;;;1.88;;
61527;SDS011;47395;42.032;-8.634;2023-09-30T07:55:27;3.15;;;2.20;;
61527;SDS011;47395;42.032;-8.634;2023-09-30T07:57:28;3.28;;;2.05;;
61527;SDS011;47395;42.032;-8.634;2023-09-30T07:59:29;2.40;;;2.00;;
61527;SDS011;47395;42.032;-8.634;2023-09-30T08:01:31;2.08;;;1.98;;
61527;SDS011;47395;42.032;-8.634;2023-09-30T08:03:32;4.07;;;2.40;;
61527;SDS011;47395;42.032;-8.634;2023-09-30T08:05:34;4.70;;;2.03;;
61527;SDS011;47395;42.032;-8.634;2023-09-30T08:07:35;3.75;;;2.28;;
61527;SDS011;47395;42.032;-8.634;2023-09-30T08:09:36;2.28;;;2.08;;
61527;SDS011;47395;42.032;-8.634;2023-09-30T08:11:38;4.60;;;2.67;;
61527;SDS011;47395;42.032;-8.634;2023-09-30T08:13:38;2.47;;;1.90;;
61527;SDS011;47395;42.032;-8.634;2023-09-30T08:15:40;1.92;;;1.83;;
61527;SDS011;47395;42.032;-8.634;2023-09-30T08:17:42;2.28;;;1.80;;
61527;SDS011;47395;42.032;-8.634;2023-09-30T08:19:46;2.58;;;1.90;;
61527;SDS011;47395;42.032;-8.634;2023-09-30T08:21:48;8.65;;;2.03;;
61527;SDS011;47395;42.032;-8.634;2023-09-30T08:23:49;3.90;;;2.40;;
61527;SDS011;47395;42.032;-8.634;2023-09-30T08:25:50;4.65;;;2.22;;
61527;SDS011;47395;42.032;-8.634;2023-09-30T08:27:51;3.90;;;2.08;;
61527;SDS011;47395;42.032;-8.634;2023-09-30T08:29:52;3.53;;;2.20;;
61527;SDS011;47395;42.032;-8.634;2023-09-30T08:31:53;3.55;;;2.25;;
61527;SDS011;47395;42.032;-8.634;2023-09-30T08:33:54;4.32;;;2.20;;
61527;SDS011;47395;42.032;-8.634;2023-09-30T08:35:55;1.98;;;1.88;;
61527;SDS011;47395;42.032;-8.634;2023-09-30T08:37:56;2.40;;;2.20;;
61527;SDS011;47395;42.032;-8.634;2023-09-30T08:39:58;2.35;;;2.15;;
61527;SDS011;47395;42.032;-8.634;2023-09-30T08:42:00;6.18;;;1.90;;
61527;SDS011;47395;42.032;-8.634;2023-09-30T08:44:03;4.95;;;2.20;;
61527;SDS011;47395;42.032;-8.634;2023-09-30T08:46:04;2.67;;;2.15;;
61527;SDS011;47395;42.032;-8.634;2023-09-30T08:48:06;2.47;;;2.25;;
61527;SDS011;47395;42.032;-8.634;2023-09-30T08:50:07;1.80;;;1.70;;
61527;SDS011;47395;42.032;-8.634;2023-09-30T08:52:10;2.60;;;1.95;;
61527;SDS011;47395;42.032;-8.634;2023-09-30T08:54:13;2.20;;;2.10;;
61527;SDS011;47395;42.032;-8.634;2023-09-30T08:56:14;2.78;;;2.20;;
61527;SDS011;47395;42.032;-8.634;2023-09-30T08:58:16;3.30;;;1.95;;
61527;SDS011;47395;42.032;-8.634;2023-09-30T09:00:18;5.18;;;2.20;;
61527;SDS011;47395;42.032;-8.634;2023-09-30T09:02:20;4.28;;;1.70;;
61527;SDS011;47395;42.032;-8.634;2023-09-30T09:04:22;3.55;;;2.03;;
61527;SDS011;47395;42.032;-8.634;2023-09-30T09:06:23;2.58;;;2.38;;
61527;SDS011;47395;42.032;-8.634;2023-09-30T09:08:26;1.95;;;1.85;;
61527;SDS011;47395;42.032;-8.634;2023-09-30T09:10:27;2.88;;;1.95;;
61527;SDS011;47395;42.032;-8.634;2023-09-30T09:12:28;3.67;;;1.90;;
61527;SDS011;47395;42.032;-8.634;2023-09-30T09:14:39;3.17;;;2.20;;
61527;SDS011;47395;42.032;-8.634;2023-09-30T09:17:03;2.13;;;1.92;;
61527;SDS011;47395;42.032;-8.634;2023-09-30T09:19:14;2.47;;;1.98;;
61527;SDS011;47395;42.032;-8.634;2023-09-30T09:21:18;3.13;;;1.90;;
61527;SDS011;47395;42.032;-8.634;2023-09-30T09:23:22;2.85;;;1.92;;
61527;SDS011;47395;42.032;-8.634;2023-09-30T09:25:23;2.65;;;1.73;;
61527;SDS011;47395;42.032;-8.634;2023-09-30T09:27:25;2.45;;;1.88;;
61527;SDS011;47395;42.032;-8.634;2023-09-30T09:29:25;2.13;;;2.00;;
61527;SDS011;47395;42.032;-8.634;2023-09-30T09:31:28;1.88;;;1.77;;
61527;SDS011;47395;42.032;-8.634;2023-09-30T09:33:35;2.15;;;1.75;;
61527;SDS011;47395;42.032;-8.634;2023-09-30T09:35:39;2.05;;;1.67;;
61527;SDS011;47395;42.032;-8.634;2023-09-30T09:37:40;2.10;;;1.77;;
61527;SDS011;47395;42.032;-8.634;2023-09-30T09:40:01;3.17;;;1.77;;
61527;SDS011;47395;42.032;-8.634;2023-09-30T09:42:04;3.17;;;1.90;;
61527;SDS011;47395;42.032;-8.634;2023-09-30T09:44:06;2.38;;;1.90;;
61527;SDS011;47395;42.032;-8.634;2023-09-30T09:46:08;1.95;;;1.80;;
61527;SDS011;47395;42.032;-8.634;2023-09-30T09:48:09;1.85;;;1.60;;
61527;SDS011;47395;42.032;-8.634;2023-09-30T09:50:10;2.65;;;1.88;;
61527;SDS011;47395;42.032;-8.634;2023-09-30T09:52:11;1.92;;;1.80;;
61527;SDS011;47395;42.032;-8.634;2023-09-30T09:54:17;2.25;;;1.98;;
61527;SDS011;47395;42.032;-8.634;2023-09-30T09:56:18;1.70;;;1.70;;
61527;SDS011;47395;42.032;-8.634;2023-09-30T09:58:22;1.40;;;1.40;;
61527;SDS011;47395;42.032;-8.634;2023-09-30T10:00:25;2.25;;;1.75;;
61527;SDS011;47395;42.032;-8.634;2023-09-30T10:02:26;3.13;;;1.80;;
61527;SDS011;47395;42.032;-8.634;2023-09-30T10:04:29;5.32;;;1.73;;
61527;SDS011;47395;42.032;-8.634;2023-09-30T10:06:30;5.72;;;1.75;;
61527;SDS011;47395;42.032;-8.634;2023-09-30T10:08:40;3.13;;;1.70;;
61527;SDS011;47395;42.032;-8.634;2023-09-30T10:10:45;5.95;;;1.60;;
61527;SDS011;47395;42.032;-8.634;2023-09-30T10:12:48;7.97;;;1.80;;
61527;SDS011;47395;42.032;-8.634;2023-09-30T10:14:49;3.72;;;1.60;;
61527;SDS011;47395;42.032;-8.634;2023-09-30T10:16:52;1.50;;;1.40;;
61527;SDS011;47395;42.032;-8.634;2023-09-30T10:19:09;3.03;;;1.50;;
61527;SDS011;47395;42.032;-8.634;2023-09-30T10:21:12;4.38;;;1.55;;
61527;SDS011;47395;42.032;-8.634;2023-09-30T10:23:20;6.28;;;1.70;;
61527;SDS011;47395;42.032;-8.634;2023-09-30T10:25:34;4.45;;;1.30;;
61527;SDS011;47395;42.032;-8.634;2023-09-30T10:27:36;4.72;;;1.70;;
61527;SDS011;47395;42.032;-8.634;2023-09-30T10:29:40;1.50;;;1.50;;
61527;SDS011;47395;42.032;-8.634;2023-09-30T10:32:01;1.80;;;1.70;;
61527;SDS011;47395;42.032;-8.634;2023-09-30T10:36:06;2.33;;;1.73;;
61527;SDS011;47395;42.032;-8.634;2023-09-30T10:40:43;1.90;;;1.80;;
61527;SDS011;47395;42.032;-8.634;2023-09-30T10:44:56;1.85;;;1.10;;
61527;SDS011;47395;42.032;-8.634;2023-09-30T10:47:00;1.48;;;1.20;;
61527;SDS011;47395;42.032;-8.634;2023-09-30T10:51:40;1.17;;;1.15;;
61527;SDS011;47395;42.032;-8.634;2023-09-30T10:53:41;1.20;;;1.10;;
61527;SDS011;47395;42.032;-8.634;2023-09-30T10:55:45;3.20;;;1.13;;
61527;SDS011;47395;42.032;-8.634;2023-09-30T10:57:50;1.95;;;0.77;;
61527;SDS011;47395;42.032;-8.634;2023-09-30T11:00:06;1.15;;;1.05;;
61527;SDS011;47395;42.032;-8.634;2023-09-30T11:02:18;1.65;;;0.90;;
61527;SDS011;47395;42.032;-8.634;2023-09-30T11:04:20;0.75;;;0.70;;
61527;SDS011;47395;42.032;-8.634;2023-09-30T11:06:21;1.83;;;1.10;;
61527;SDS011;47395;42.032;-8.634;2023-09-30T11:08:22;1.10;;;1.10;;
61527;SDS011;47395;42.032;-8.634;2023-09-30T11:10:25;1.00;;;1.00;;
61527;SDS011;47395;42.032;-8.634;2023-09-30T11:12:26;0.95;;;0.90;;
61527;SDS011;47395;42.032;-8.634;2023-09-30T11:14:30;3.33;;;1.00;;
61527;SDS011;47395;42.032;-8.634;2023-09-30T11:16:41;1.00;;;1.00;;
61527;SDS011;47395;42.032;-8.634;2023-09-30T11:18:43;1.40;;;0.90;;
61527;SDS011;47395;42.032;-8.634;2023-09-30T11:20:44;0.80;;;0.80;;
61527;SDS011;47395;42.032;-8.634;2023-09-30T11:22:46;2.53;;;1.17;;
61527;SDS011;47395;42.032;-8.634;2023-09-30T11:24:48;0.93;;;0.93;;
61527;SDS011;47395;42.032;-8.634;2023-09-30T11:26:52;1.13;;;1.00;;
61527;SDS011;47395;42.032;-8.634;2023-09-30T11:28:53;2.80;;;1.00;;
61527;SDS011;47395;42.032;-8.634;2023-09-30T11:31:00;0.98;;;0.98;;
61527;SDS011;47395;42.032;-8.634;2023-09-30T11:33:07;1.58;;;0.88;;
61527;SDS011;47395;42.032;-8.634;2023-09-30T11:35:09;2.88;;;0.93;;
61527;SDS011;47395;42.032;-8.634;2023-09-30T11:37:11;1.38;;;0.98;;
61527;SDS011;47395;42.032;-8.634;2023-09-30T11:39:21;2.03;;;0.90;;
61527;SDS011;47395;42.032;-8.634;2023-09-30T11:41:31;1.42;;;1.38;;
61527;SDS011;47395;42.032;-8.634;2023-09-30T11:43:38;3.05;;;1.10;;
61527;SDS011;47395;42.032;-8.634;2023-09-30T11:45:40;1.00;;;1.00;;
61527;SDS011;47395;42.032;-8.634;2023-09-30T11:47:41;1.00;;;1.00;;
61527;SDS011;47395;42.032;-8.634;2023-09-30T11:49:43;2.05;;;1.00;;
61527;SDS011;47395;42.032;-8.634;2023-09-30T11:51:48;0.90;;;0.90;;
61527;SDS011;47395;42.032;-8.634;2023-09-30T11:53:49;1.05;;;1.00;;
61527;SDS011;47395;42.032;-8.634;2023-09-30T11:55:58;0.88;;;0.88;;
61527;SDS011;47395;42.032;-8.634;2023-09-30T11:57:59;0.90;;;0.90;;
61527;SDS011;47395;42.032;-8.634;2023-09-30T12:00:00;1.77;;;1.00;;
61527;SDS011;47395;42.032;-8.634;2023-09-30T12:02:14;0.98;;;0.98;;
61527;SDS011;47395;42.032;-8.634;2023-09-30T12:04:17;1.95;;;1.00;;
61527;SDS011;47395;42.032;-8.634;2023-09-30T12:06:19;7.78;;;1.10;;
61527;SDS011;47395;42.032;-8.634;2023-09-30T12:08:21;1.17;;;1.08;;
61527;SDS011;47395;42.032;-8.634;2023-09-30T12:10:23;3.13;;;0.98;;
61527;SDS011;47395;42.032;-8.634;2023-09-30T12:12:24;1.00;;;0.90;;
61527;SDS011;47395;42.032;-8.634;2023-09-30T12:14:25;1.65;;;0.90;;
61527;SDS011;47395;42.032;-8.634;2023-09-30T12:16:29;0.90;;;0.90;;